Terminal Aerodrome Forecast
Issued by NWS

Home | Current Version | Previous Version | Text Only | Print | Product List | Glossary On
Versions: 1 2 3 4 5 6 7 8 9 10 11 12 13 14 15 16 17
000
FTUS43 KBIS 201700
TAFJMS
TAF
KJMS 201720Z 2018/2118 17009KT 1/4SM FZFG OVC002
      TEMPO 2020/2021 4SM BR SCT002 BKN090
     FM202100 18006KT P6SM VCSH SCT004 OVC080
     FM210500 21006KT P6SM SCT090
     FM211100 19004KT P6SM FEW250=

USA.gov is the U.S. government's official web portal to all federal, state and local government web resources and services.